Terminal Aerodrome Forecast
Issued by NWS

Home | Current Version | Previous Version | Text Only | Print | Product List | Glossary Off
Versions: 1 2 3 4 5 6 7 8 9 10 11 12 13 14 15 16 17 18 19 20 21 22 23 24 25

000
FTUS43 KGRB 242100 AAA
TAFATW
TAF AMD
KATW 242135Z 2422/2518 30012G18KT 1/2SM SN OVC003
     FM250200 30012KT 1SM -SN OVC006
     FM250900 30009KT 5SM -SN OVC012
     FM251300 29008KT P6SM OVC020=

USA.gov is the U.S. government's official web portal to all federal, state and local government web resources and services.